sensor_id;sensor_type;location;lat;lon;timestamp;temperature;humidity
19870;DHT22;10097;50.862;4.696;2023-04-03T00:00:30;3.50;99.90
19870;DHT22;10097;50.862;4.696;2023-04-03T00:02:57;3.60;99.90
19870;DHT22;10097;50.862;4.696;2023-04-03T00:05:24;3.50;99.90
19870;DHT22;10097;50.862;4.696;2023-04-03T00:07:50;3.50;99.90
19870;DHT22;10097;50.862;4.696;2023-04-03T00:10:17;3.40;99.90
19870;DHT22;10097;50.862;4.696;2023-04-03T00:12:44;3.40;99.90
19870;DHT22;10097;50.862;4.696;2023-04-03T00:15:10;3.40;99.90
19870;DHT22;10097;50.862;4.696;2023-04-03T00:17:36;3.40;99.90
19870;DHT22;10097;50.862;4.696;2023-04-03T00:20:03;3.40;99.90
19870;DHT22;10097;50.862;4.696;2023-04-03T00:22:30;3.50;99.90
19870;DHT22;10097;50.862;4.696;2023-04-03T00:24:57;3.50;99.90
19870;DHT22;10097;50.862;4.696;2023-04-03T00:27:24;3.50;99.90
19870;DHT22;10097;50.862;4.696;2023-04-03T00:29:52;3.50;99.90
19870;DHT22;10097;50.862;4.696;2023-04-03T00:32:19;3.40;99.90
19870;DHT22;10097;50.862;4.696;2023-04-03T00:34:45;3.40;99.90
19870;DHT22;10097;50.862;4.696;2023-04-03T00:37:10;3.30;99.90
19870;DHT22;10097;50.862;4.696;2023-04-03T00:39:36;3.30;99.90
19870;DHT22;10097;50.862;4.696;2023-04-03T00:42:03;3.40;99.90
19870;DHT22;10097;50.862;4.696;2023-04-03T00:47:00;3.30;99.90
19870;DHT22;10097;50.862;4.696;2023-04-03T00:49:27;3.30;99.90
19870;DHT22;10097;50.862;4.696;2023-04-03T00:51:55;3.40;99.90
19870;DHT22;10097;50.862;4.696;2023-04-03T00:54:21;3.40;99.90
19870;DHT22;10097;50.862;4.696;2023-04-03T00:56:48;3.30;99.90
19870;DHT22;10097;50.862;4.696;2023-04-03T00:59:27;3.30;99.90
19870;DHT22;10097;50.862;4.696;2023-04-03T01:01:55;3.30;99.90
19870;DHT22;10097;50.862;4.696;2023-04-03T01:04:42;3.30;99.90
19870;DHT22;10097;50.862;4.696;2023-04-03T01:07:17;3.30;99.90
19870;DHT22;10097;50.862;4.696;2023-04-03T01:09:44;3.30;99.90
19870;DHT22;10097;50.862;4.696;2023-04-03T01:12:21;3.30;99.90
19870;DHT22;10097;50.862;4.696;2023-04-03T01:14:50;3.40;99.90
19870;DHT22;10097;50.862;4.696;2023-04-03T01:17:30;3.30;99.90
19870;DHT22;10097;50.862;4.696;2023-04-03T01:25:33;3.30;99.90
19870;DHT22;10097;50.862;4.696;2023-04-03T01:28:00;3.30;99.90
19870;DHT22;10097;50.862;4.696;2023-04-03T01:30:31;3.40;99.90
19870;DHT22;10097;50.862;4.696;2023-04-03T01:33:00;3.30;99.90
19870;DHT22;10097;50.862;4.696;2023-04-03T01:35:26;3.40;99.90
19870;DHT22;10097;50.862;4.696;2023-04-03T01:37:52;3.40;99.90
19870;DHT22;10097;50.862;4.696;2023-04-03T01:40:19;3.40;99.90
19870;DHT22;10097;50.862;4.696;2023-04-03T01:42:45;3.40;99.90
19870;DHT22;10097;50.862;4.696;2023-04-03T01:45:20;3.30;99.90
19870;DHT22;10097;50.862;4.696;2023-04-03T01:47:47;3.30;99.90
19870;DHT22;10097;50.862;4.696;2023-04-03T01:50:13;3.30;99.90
19870;DHT22;10097;50.862;4.696;2023-04-03T01:52:45;3.30;99.90
19870;DHT22;10097;50.862;4.696;2023-04-03T01:55:11;3.20;99.90
19870;DHT22;10097;50.862;4.696;2023-04-03T01:57:37;3.30;99.90
19870;DHT22;10097;50.862;4.696;2023-04-03T02:00:04;3.30;99.90
19870;DHT22;10097;50.862;4.696;2023-04-03T02:02:30;3.30;99.90
19870;DHT22;10097;50.862;4.696;2023-04-03T02:04:56;3.30;99.90
19870;DHT22;10097;50.862;4.696;2023-04-03T02:07:21;3.20;99.90
19870;DHT22;10097;50.862;4.696;2023-04-03T02:09:50;3.30;99.90
19870;DHT22;10097;50.862;4.696;2023-04-03T02:12:16;3.30;99.90
19870;DHT22;10097;50.862;4.696;2023-04-03T02:14:43;3.20;99.90
19870;DHT22;10097;50.862;4.696;2023-04-03T02:17:09;3.30;99.90
19870;DHT22;10097;50.862;4.696;2023-04-03T02:19:35;3.20;99.90
19870;DHT22;10097;50.862;4.696;2023-04-03T02:22:02;3.20;99.90
19870;DHT22;10097;50.862;4.696;2023-04-03T02:24:28;3.10;99.90
19870;DHT22;10097;50.862;4.696;2023-04-03T02:26:56;3.20;99.90
19870;DHT22;10097;50.862;4.696;2023-04-03T02:29:24;3.10;99.90
19870;DHT22;10097;50.862;4.696;2023-04-03T02:31:50;3.10;99.90
19870;DHT22;10097;50.862;4.696;2023-04-03T02:34:16;3.10;99.90
19870;DHT22;10097;50.862;4.696;2023-04-03T02:36:42;3.10;99.90
19870;DHT22;10097;50.862;4.696;2023-04-03T02:39:14;3.10;99.90
19870;DHT22;10097;50.862;4.696;2023-04-03T02:41:40;3.10;99.90
19870;DHT22;10097;50.862;4.696;2023-04-03T02:44:07;3.10;99.90
19870;DHT22;10097;50.862;4.696;2023-04-03T02:46:33;3.10;99.90
19870;DHT22;10097;50.862;4.696;2023-04-03T02:48:58;3.10;99.90
19870;DHT22;10097;50.862;4.696;2023-04-03T02:51:25;3.10;99.90
19870;DHT22;10097;50.862;4.696;2023-04-03T02:53:50;3.10;99.90
19870;DHT22;10097;50.862;4.696;2023-04-03T02:56:17;3.00;99.90
19870;DHT22;10097;50.862;4.696;2023-04-03T02:58:44;3.00;99.90
19870;DHT22;10097;50.862;4.696;2023-04-03T03:01:10;3.00;99.90
19870;DHT22;10097;50.862;4.696;2023-04-03T03:03:36;3.00;99.90
19870;DHT22;10097;50.862;4.696;2023-04-03T03:06:14;3.00;99.90
19870;DHT22;10097;50.862;4.696;2023-04-03T03:08:41;2.90;99.90
19870;DHT22;10097;50.862;4.696;2023-04-03T03:11:10;3.00;99.90
19870;DHT22;10097;50.862;4.696;2023-04-03T03:13:35;2.90;99.90
19870;DHT22;10097;50.862;4.696;2023-04-03T03:16:05;2.90;99.90
19870;DHT22;10097;50.862;4.696;2023-04-03T03:18:32;2.90;99.90
19870;DHT22;10097;50.862;4.696;2023-04-03T03:20:59;2.80;99.90
19870;DHT22;10097;50.862;4.696;2023-04-03T03:23:26;2.80;99.90
19870;DHT22;10097;50.862;4.696;2023-04-03T03:25:58;2.80;99.90
19870;DHT22;10097;50.862;4.696;2023-04-03T03:28:24;2.70;99.90
19870;DHT22;10097;50.862;4.696;2023-04-03T03:30:50;2.70;99.90
19870;DHT22;10097;50.862;4.696;2023-04-03T03:33:16;2.70;99.90
19870;DHT22;10097;50.862;4.696;2023-04-03T03:35:44;2.70;99.90
19870;DHT22;10097;50.862;4.696;2023-04-03T03:38:09;2.80;99.90
19870;DHT22;10097;50.862;4.696;2023-04-03T03:40:35;2.70;99.90
19870;DHT22;10097;50.862;4.696;2023-04-03T03:43:01;2.70;99.90
19870;DHT22;10097;50.862;4.696;2023-04-03T03:45:27;2.70;99.90
19870;DHT22;10097;50.862;4.696;2023-04-03T03:47:54;2.70;99.90
19870;DHT22;10097;50.862;4.696;2023-04-03T03:50:20;2.70;99.90
19870;DHT22;10097;50.862;4.696;2023-04-03T03:52:47;2.60;99.90
19870;DHT22;10097;50.862;4.696;2023-04-03T03:55:13;2.60;99.90
19870;DHT22;10097;50.862;4.696;2023-04-03T03:57:39;2.60;99.90
19870;DHT22;10097;50.862;4.696;2023-04-03T04:00:05;2.60;99.90
19870;DHT22;10097;50.862;4.696;2023-04-03T04:02:32;2.60;99.90
19870;DHT22;10097;50.862;4.696;2023-04-03T04:04:58;2.60;99.90
19870;DHT22;10097;50.862;4.696;2023-04-03T04:07:24;2.60;99.90
19870;DHT22;10097;50.862;4.696;2023-04-03T04:09:50;2.60;99.90
19870;DHT22;10097;50.862;4.696;2023-04-03T04:12:15;2.60;99.90
19870;DHT22;10097;50.862;4.696;2023-04-03T04:14:41;2.60;99.90
19870;DHT22;10097;50.862;4.696;2023-04-03T04:17:07;2.50;99.90
19870;DHT22;10097;50.862;4.696;2023-04-03T04:19:32;2.40;99.90
19870;DHT22;10097;50.862;4.696;2023-04-03T04:21:58;2.40;99.90
19870;DHT22;10097;50.862;4.696;2023-04-03T04:24:24;2.30;99.90
19870;DHT22;10097;50.862;4.696;2023-04-03T04:26:50;2.30;99.90
19870;DHT22;10097;50.862;4.696;2023-04-03T04:29:16;2.30;99.90
19870;DHT22;10097;50.862;4.696;2023-04-03T04:31:41;2.30;99.90
19870;DHT22;10097;50.862;4.696;2023-04-03T04:34:07;2.30;99.90
19870;DHT22;10097;50.862;4.696;2023-04-03T04:36:34;2.20;99.90
19870;DHT22;10097;50.862;4.696;2023-04-03T04:39:07;2.10;99.90
19870;DHT22;10097;50.862;4.696;2023-04-03T04:41:33;2.10;99.90
19870;DHT22;10097;50.862;4.696;2023-04-03T04:44:00;2.10;99.90
19870;DHT22;10097;50.862;4.696;2023-04-03T04:46:26;2.10;99.90
19870;DHT22;10097;50.862;4.696;2023-04-03T04:48:56;2.00;99.90
19870;DHT22;10097;50.862;4.696;2023-04-03T04:51:22;2.10;99.90
19870;DHT22;10097;50.862;4.696;2023-04-03T04:53:48;2.00;99.90
19870;DHT22;10097;50.862;4.696;2023-04-03T04:56:14;2.00;99.90
19870;DHT22;10097;50.862;4.696;2023-04-03T04:58:41;2.00;99.90
19870;DHT22;10097;50.862;4.696;2023-04-03T05:01:08;2.00;99.90
19870;DHT22;10097;50.862;4.696;2023-04-03T05:03:35;2.00;99.90
19870;DHT22;10097;50.862;4.696;2023-04-03T05:06:01;1.90;99.90
19870;DHT22;10097;50.862;4.696;2023-04-03T05:08:27;1.90;99.90
19870;DHT22;10097;50.862;4.696;2023-04-03T05:10:52;1.90;99.90
19870;DHT22;10097;50.862;4.696;2023-04-03T05:13:19;1.90;99.90
19870;DHT22;10097;50.862;4.696;2023-04-03T05:15:47;1.90;99.90
19870;DHT22;10097;50.862;4.696;2023-04-03T05:18:13;1.90;99.90
19870;DHT22;10097;50.862;4.696;2023-04-03T05:20:40;1.80;99.90
19870;DHT22;10097;50.862;4.696;2023-04-03T05:23:06;1.80;99.90
19870;DHT22;10097;50.862;4.696;2023-04-03T05:25:31;1.80;99.90
19870;DHT22;10097;50.862;4.696;2023-04-03T05:28:04;1.80;99.90
19870;DHT22;10097;50.862;4.696;2023-04-03T05:30:30;1.80;99.90
19870;DHT22;10097;50.862;4.696;2023-04-03T05:32:58;1.80;99.90
19870;DHT22;10097;50.862;4.696;2023-04-03T05:35:24;1.80;99.90
19870;DHT22;10097;50.862;4.696;2023-04-03T05:37:50;1.80;99.90
19870;DHT22;10097;50.862;4.696;2023-04-03T05:40:16;1.80;99.90
19870;DHT22;10097;50.862;4.696;2023-04-03T05:42:42;1.80;99.90
19870;DHT22;10097;50.862;4.696;2023-04-03T05:45:09;1.80;99.90
19870;DHT22;10097;50.862;4.696;2023-04-03T05:47:35;1.90;99.90
19870;DHT22;10097;50.862;4.696;2023-04-03T05:50:01;1.90;99.90
19870;DHT22;10097;50.862;4.696;2023-04-03T05:52:29;2.00;99.90
19870;DHT22;10097;50.862;4.696;2023-04-03T05:54:55;2.00;99.90
19870;DHT22;10097;50.862;4.696;2023-04-03T05:57:22;2.00;99.90
19870;DHT22;10097;50.862;4.696;2023-04-03T05:59:48;2.00;99.90
19870;DHT22;10097;50.862;4.696;2023-04-03T06:02:18;2.00;99.90
19870;DHT22;10097;50.862;4.696;2023-04-03T06:04:45;2.10;99.90
19870;DHT22;10097;50.862;4.696;2023-04-03T06:07:16;2.10;99.90
19870;DHT22;10097;50.862;4.696;2023-04-03T06:09:43;2.20;99.90
19870;DHT22;10097;50.862;4.696;2023-04-03T06:12:09;2.30;99.90
19870;DHT22;10097;50.862;4.696;2023-04-03T06:14:35;2.40;99.90
19870;DHT22;10097;50.862;4.696;2023-04-03T06:17:02;2.40;99.90
19870;DHT22;10097;50.862;4.696;2023-04-03T06:19:28;2.50;99.90
19870;DHT22;10097;50.862;4.696;2023-04-03T06:21:54;2.60;99.90
19870;DHT22;10097;50.862;4.696;2023-04-03T06:24:20;2.50;99.90
19870;DHT22;10097;50.862;4.696;2023-04-03T06:26:48;2.50;99.90
19870;DHT22;10097;50.862;4.696;2023-04-03T06:29:15;2.50;99.90
19870;DHT22;10097;50.862;4.696;2023-04-03T06:31:44;2.60;99.90
19870;DHT22;10097;50.862;4.696;2023-04-03T06:34:10;2.60;99.90
19870;DHT22;10097;50.862;4.696;2023-04-03T06:36:38;2.70;99.90
19870;DHT22;10097;50.862;4.696;2023-04-03T06:39:05;2.70;99.90
19870;DHT22;10097;50.862;4.696;2023-04-03T06:41:34;2.90;99.90
19870;DHT22;10097;50.862;4.696;2023-04-03T06:43:59;3.10;99.90
19870;DHT22;10097;50.862;4.696;2023-04-03T06:46:26;3.10;99.90
19870;DHT22;10097;50.862;4.696;2023-04-03T06:48:52;3.20;99.90
19870;DHT22;10097;50.862;4.696;2023-04-03T06:51:27;3.20;99.90
19870;DHT22;10097;50.862;4.696;2023-04-03T06:53:55;3.20;99.90
19870;DHT22;10097;50.862;4.696;2023-04-03T06:56:22;3.10;99.90
19870;DHT22;10097;50.862;4.696;2023-04-03T06:58:51;3.10;99.90
19870;DHT22;10097;50.862;4.696;2023-04-03T07:01:18;3.10;99.90
19870;DHT22;10097;50.862;4.696;2023-04-03T07:03:45;3.20;99.90
19870;DHT22;10097;50.862;4.696;2023-04-03T07:06:15;3.30;99.90
19870;DHT22;10097;50.862;4.696;2023-04-03T07:08:42;3.40;99.90
19870;DHT22;10097;50.862;4.696;2023-04-03T07:11:13;3.40;99.90
19870;DHT22;10097;50.862;4.696;2023-04-03T07:13:39;3.50;99.90
19870;DHT22;10097;50.862;4.696;2023-04-03T07:16:06;3.60;99.90
19870;DHT22;10097;50.862;4.696;2023-04-03T07:18:33;3.60;99.90
19870;DHT22;10097;50.862;4.696;2023-04-03T07:20:59;3.70;99.90
19870;DHT22;10097;50.862;4.696;2023-04-03T07:23:27;3.80;99.90
19870;DHT22;10097;50.862;4.696;2023-04-03T07:25:53;3.80;99.90
19870;DHT22;10097;50.862;4.696;2023-04-03T07:28:28;3.80;99.90
19870;DHT22;10097;50.862;4.696;2023-04-03T07:31:08;4.00;99.90
19870;DHT22;10097;50.862;4.696;2023-04-03T07:33:46;4.00;99.90
19870;DHT22;10097;50.862;4.696;2023-04-03T07:36:16;4.00;99.90
19870;DHT22;10097;50.862;4.696;2023-04-03T07:38:43;4.00;99.90
19870;DHT22;10097;50.862;4.696;2023-04-03T07:41:13;4.10;99.90
19870;DHT22;10097;50.862;4.696;2023-04-03T07:43:40;4.10;99.90
19870;DHT22;10097;50.862;4.696;2023-04-03T07:46:08;4.10;99.90
19870;DHT22;10097;50.862;4.696;2023-04-03T07:48:34;4.30;99.90
19870;DHT22;10097;50.862;4.696;2023-04-03T07:51:05;4.30;99.90
19870;DHT22;10097;50.862;4.696;2023-04-03T07:53:32;4.40;99.90
19870;DHT22;10097;50.862;4.696;2023-04-03T07:55:59;4.40;99.90
19870;DHT22;10097;50.862;4.696;2023-04-03T07:58:26;4.40;99.90
19870;DHT22;10097;50.862;4.696;2023-04-03T08:00:52;4.40;99.90
19870;DHT22;10097;50.862;4.696;2023-04-03T08:03:18;4.60;99.90
19870;DHT22;10097;50.862;4.696;2023-04-03T08:05:46;4.70;99.90
19870;DHT22;10097;50.862;4.696;2023-04-03T08:08:16;4.90;99.90
19870;DHT22;10097;50.862;4.696;2023-04-03T08:10:42;5.00;99.90
19870;DHT22;10097;50.862;4.696;2023-04-03T08:13:09;5.10;99.90
19870;DHT22;10097;50.862;4.696;2023-04-03T08:15:36;5.20;99.90
19870;DHT22;10097;50.862;4.696;2023-04-03T08:18:03;5.40;99.90
19870;DHT22;10097;50.862;4.696;2023-04-03T08:20:30;5.50;99.90
19870;DHT22;10097;50.862;4.696;2023-04-03T08:22:56;5.60;99.90
19870;DHT22;10097;50.862;4.696;2023-04-03T08:25:23;5.60;99.90
19870;DHT22;10097;50.862;4.696;2023-04-03T08:27:54;5.70;99.90
19870;DHT22;10097;50.862;4.696;2023-04-03T08:30:23;5.70;99.90
19870;DHT22;10097;50.862;4.696;2023-04-03T08:32:57;5.80;99.90
19870;DHT22;10097;50.862;4.696;2023-04-03T08:35:23;5.90;99.90
19870;DHT22;10097;50.862;4.696;2023-04-03T08:37:50;6.10;99.90
19870;DHT22;10097;50.862;4.696;2023-04-03T08:40:17;6.10;99.90
19870;DHT22;10097;50.862;4.696;2023-04-03T08:45:27;6.30;99.90
19870;DHT22;10097;50.862;4.696;2023-04-03T08:48:08;6.40;99.90
19870;DHT22;10097;50.862;4.696;2023-04-03T08:50:46;6.60;99.90
19870;DHT22;10097;50.862;4.696;2023-04-03T08:53:16;6.60;99.90
19870;DHT22;10097;50.862;4.696;2023-04-03T08:56:05;6.70;99.90
19870;DHT22;10097;50.862;4.696;2023-04-03T08:58:49;6.70;99.90
19870;DHT22;10097;50.862;4.696;2023-04-03T09:01:30;6.80;99.90
19870;DHT22;10097;50.862;4.696;2023-04-03T09:04:01;6.70;99.90
19870;DHT22;10097;50.862;4.696;2023-04-03T09:06:29;6.80;99.90
19870;DHT22;10097;50.862;4.696;2023-04-03T09:15:18;7.20;99.90
19870;DHT22;10097;50.862;4.696;2023-04-03T09:20:46;7.50;99.90
19870;DHT22;10097;50.862;4.696;2023-04-03T09:23:54;7.60;99.90
19870;DHT22;10097;50.862;4.696;2023-04-03T09:29:04;7.70;99.90
19870;DHT22;10097;50.862;4.696;2023-04-03T09:31:42;7.60;99.90
19870;DHT22;10097;50.862;4.696;2023-04-03T09:34:27;7.60;99.90
19870;DHT22;10097;50.862;4.696;2023-04-03T09:36:57;7.60;99.90
19870;DHT22;10097;50.862;4.696;2023-04-03T09:39:27;7.70;99.90
19870;DHT22;10097;50.862;4.696;2023-04-03T09:47:35;8.10;99.90
19870;DHT22;10097;50.862;4.696;2023-04-03T09:52:47;7.90;99.90
19870;DHT22;10097;50.862;4.696;2023-04-03T09:55:24;7.90;99.90
19870;DHT22;10097;50.862;4.696;2023-04-03T09:57:58;8.00;99.90
19870;DHT22;10097;50.862;4.696;2023-04-03T10:03:01;8.30;99.90
19870;DHT22;10097;50.862;4.696;2023-04-03T10:05:41;8.50;99.90
19870;DHT22;10097;50.862;4.696;2023-04-03T10:08:14;8.70;99.90
19870;DHT22;10097;50.862;4.696;2023-04-03T10:10:45;8.70;99.90
19870;DHT22;10097;50.862;4.696;2023-04-03T10:13:15;8.70;99.90
19870;DHT22;10097;50.862;4.696;2023-04-03T10:21:13;8.80;99.90
19870;DHT22;10097;50.862;4.696;2023-04-03T10:23:54;8.80;99.90
19870;DHT22;10097;50.862;4.696;2023-04-03T10:26:49;8.90;99.90
19870;DHT22;10097;50.862;4.696;2023-04-03T10:32:01;9.10;99.90
19870;DHT22;10097;50.862;4.696;2023-04-03T10:34:37;9.20;99.90
19870;DHT22;10097;50.862;4.696;2023-04-03T10:37:27;9.30;99.90
19870;DHT22;10097;50.862;4.696;2023-04-03T10:40:47;9.30;99.90
19870;DHT22;10097;50.862;4.696;2023-04-03T10:43:09;9.40;99.90
19870;DHT22;10097;50.862;4.696;2023-04-03T10:45:57;9.50;99.90
19870;DHT22;10097;50.862;4.696;2023-04-03T10:49:10;9.50;99.90
19870;DHT22;10097;50.862;4.696;2023-04-03T10:51:55;9.60;99.90
19870;DHT22;10097;50.862;4.696;2023-04-03T10:54:30;9.70;99.90
19870;DHT22;10097;50.862;4.696;2023-04-03T10:57:03;9.80;99.90
19870;DHT22;10097;50.862;4.696;2023-04-03T10:59:43;9.80;99.90
19870;DHT22;10097;50.862;4.696;2023-04-03T11:05:18;9.70;99.90
19870;DHT22;10097;50.862;4.696;2023-04-03T11:07:50;9.80;99.90
19870;DHT22;10097;50.862;4.696;2023-04-03T11:10:35;10.00;99.90
19870;DHT22;10097;50.862;4.696;2023-04-03T11:13:33;10.10;99.90
19870;DHT22;10097;50.862;4.696;2023-04-03T11:16:00;10.30;99.90
19870;DHT22;10097;50.862;4.696;2023-04-03T11:19:05;10.40;99.90
19870;DHT22;10097;50.862;4.696;2023-04-03T11:21:47;10.40;99.90
19870;DHT22;10097;50.862;4.696;2023-04-03T11:24:24;10.40;99.90
19870;DHT22;10097;50.862;4.696;2023-04-03T11:26:52;10.40;99.90
19870;DHT22;10097;50.862;4.696;2023-04-03T11:29:23;10.40;99.90
19870;DHT22;10097;50.862;4.696;2023-04-03T11:34:40;10.60;99.90
19870;DHT22;10097;50.862;4.696;2023-04-03T11:37:29;10.80;99.90
19870;DHT22;10097;50.862;4.696;2023-04-03T11:40:00;11.10;99.90
19870;DHT22;10097;50.862;4.696;2023-04-03T11:42:41;11.10;99.90
19870;DHT22;10097;50.862;4.696;2023-04-03T11:50:47;11.10;99.90
19870;DHT22;10097;50.862;4.696;2023-04-03T11:55:44;11.00;99.90
19870;DHT22;10097;50.862;4.696;2023-04-03T12:05:55;11.60;99.90
19870;DHT22;10097;50.862;4.696;2023-04-03T12:19:38;11.70;99.90
19870;DHT22;10097;50.862;4.696;2023-04-03T12:22:19;11.90;99.90
19870;DHT22;10097;50.862;4.696;2023-04-03T12:24:51;11.90;99.90
19870;DHT22;10097;50.862;4.696;2023-04-03T12:27:40;12.10;99.90
19870;DHT22;10097;50.862;4.696;2023-04-03T12:30:27;12.00;99.90
19870;DHT22;10097;50.862;4.696;2023-04-03T12:33:11;12.10;99.90
19870;DHT22;10097;50.862;4.696;2023-04-03T12:35:57;12.60;99.90
19870;DHT22;10097;50.862;4.696;2023-04-03T12:48:51;12.70;99.90
19870;DHT22;10097;50.862;4.696;2023-04-03T12:51:40;12.90;99.90
19870;DHT22;10097;50.862;4.696;2023-04-03T12:54:37;13.10;99.90
19870;DHT22;10097;50.862;4.696;2023-04-03T12:57:16;13.10;99.90
19870;DHT22;10097;50.862;4.696;2023-04-03T12:59:42;13.40;99.70
19870;DHT22;10097;50.862;4.696;2023-04-03T13:02:22;13.60;99.90
19870;DHT22;10097;50.862;4.696;2023-04-03T13:04:50;13.70;99.90
19870;DHT22;10097;50.862;4.696;2023-04-03T13:07:28;13.70;99.50
19870;DHT22;10097;50.862;4.696;2023-04-03T13:12:34;13.30;98.90
19870;DHT22;10097;50.862;4.696;2023-04-03T13:15:11;13.40;99.80
19870;DHT22;10097;50.862;4.696;2023-04-03T13:17:42;13.70;99.40
19870;DHT22;10097;50.862;4.696;2023-04-03T13:20:34;13.30;98.50
19870;DHT22;10097;50.862;4.696;2023-04-03T13:23:08;13.70;99.90
19870;DHT22;10097;50.862;4.696;2023-04-03T13:25:40;13.80;99.90
19870;DHT22;10097;50.862;4.696;2023-04-03T13:28:07;13.90;99.90
19870;DHT22;10097;50.862;4.696;2023-04-03T13:30:37;13.90;99.70
19870;DHT22;10097;50.862;4.696;2023-04-03T13:33:06;14.30;99.80
19870;DHT22;10097;50.862;4.696;2023-04-03T13:35:43;14.60;99.80
19870;DHT22;10097;50.862;4.696;2023-04-03T13:40:53;14.50;98.30
19870;DHT22;10097;50.862;4.696;2023-04-03T13:43:25;14.90;97.40
19870;DHT22;10097;50.862;4.696;2023-04-03T13:48:47;15.20;94.40
19870;DHT22;10097;50.862;4.696;2023-04-03T13:56:42;14.90;92.20
19870;DHT22;10097;50.862;4.696;2023-04-03T14:04:29;14.70;92.30
19870;DHT22;10097;50.862;4.696;2023-04-03T14:06:55;14.60;91.20
19870;DHT22;10097;50.862;4.696;2023-04-03T14:09:22;14.50;91.10
19870;DHT22;10097;50.862;4.696;2023-04-03T14:11:54;14.70;91.40
19870;DHT22;10097;50.862;4.696;2023-04-03T14:14:27;15.00;92.50
19870;DHT22;10097;50.862;4.696;2023-04-03T14:16:58;14.80;92.00
19870;DHT22;10097;50.862;4.696;2023-04-03T14:19:35;15.00;91.60
19870;DHT22;10097;50.862;4.696;2023-04-03T14:22:15;15.40;90.80
19870;DHT22;10097;50.862;4.696;2023-04-03T14:24:41;15.50;91.40
19870;DHT22;10097;50.862;4.696;2023-04-03T14:27:17;15.60;89.80
19870;DHT22;10097;50.862;4.696;2023-04-03T14:29:43;15.70;90.20
19870;DHT22;10097;50.862;4.696;2023-04-03T14:32:12;15.60;89.00
19870;DHT22;10097;50.862;4.696;2023-04-03T14:34:38;15.10;90.00
19870;DHT22;10097;50.862;4.696;2023-04-03T14:37:05;15.40;90.90
19870;DHT22;10097;50.862;4.696;2023-04-03T14:39:34;15.60;91.70
19870;DHT22;10097;50.862;4.696;2023-04-03T14:42:00;15.10;90.50
19870;DHT22;10097;50.862;4.696;2023-04-03T14:44:26;14.70;92.00
19870;DHT22;10097;50.862;4.696;2023-04-03T14:46:52;14.80;91.90
19870;DHT22;10097;50.862;4.696;2023-04-03T14:49:20;14.90;91.60
19870;DHT22;10097;50.862;4.696;2023-04-03T14:51:47;14.80;91.40
19870;DHT22;10097;50.862;4.696;2023-04-03T14:54:16;14.90;92.40
19870;DHT22;10097;50.862;4.696;2023-04-03T14:56:42;15.30;92.00
19870;DHT22;10097;50.862;4.696;2023-04-03T14:59:11;15.10;91.50
19870;DHT22;10097;50.862;4.696;2023-04-03T15:01:38;15.10;91.80
19870;DHT22;10097;50.862;4.696;2023-04-03T15:04:17;15.20;92.00
19870;DHT22;10097;50.862;4.696;2023-04-03T15:06:44;15.10;91.50
19870;DHT22;10097;50.862;4.696;2023-04-03T15:09:22;14.80;91.90
19870;DHT22;10097;50.862;4.696;2023-04-03T15:11:49;15.10;90.90
19870;DHT22;10097;50.862;4.696;2023-04-03T15:14:15;15.50;92.50
19870;DHT22;10097;50.862;4.696;2023-04-03T15:16:41;15.60;91.70
19870;DHT22;10097;50.862;4.696;2023-04-03T15:19:07;15.80;91.60
19870;DHT22;10097;50.862;4.696;2023-04-03T15:21:32;16.00;90.70
19870;DHT22;10097;50.862;4.696;2023-04-03T15:23:58;16.30;91.20
19870;DHT22;10097;50.862;4.696;2023-04-03T15:26:24;15.70;90.30
19870;DHT22;10097;50.862;4.696;2023-04-03T15:28:50;15.80;91.60
19870;DHT22;10097;50.862;4.696;2023-04-03T15:31:18;15.90;91.40
19870;DHT22;10097;50.862;4.696;2023-04-03T15:33:43;16.10;91.50
19870;DHT22;10097;50.862;4.696;2023-04-03T15:36:09;15.80;91.80
19870;DHT22;10097;50.862;4.696;2023-04-03T15:38:35;15.70;91.90
19870;DHT22;10097;50.862;4.696;2023-04-03T15:41:04;15.70;91.10
19870;DHT22;10097;50.862;4.696;2023-04-03T15:43:30;15.30;91.40
19870;DHT22;10097;50.862;4.696;2023-04-03T15:45:58;15.40;91.40
19870;DHT22;10097;50.862;4.696;2023-04-03T15:48:25;15.70;92.20
19870;DHT22;10097;50.862;4.696;2023-04-03T15:50:51;16.00;91.40
19870;DHT22;10097;50.862;4.696;2023-04-03T15:53:16;16.20;91.50
19870;DHT22;10097;50.862;4.696;2023-04-03T15:55:42;16.20;90.80
19870;DHT22;10097;50.862;4.696;2023-04-03T15:58:08;16.30;90.50
19870;DHT22;10097;50.862;4.696;2023-04-03T16:00:35;15.90;90.90
19870;DHT22;10097;50.862;4.696;2023-04-03T16:03:08;15.20;91.30
19870;DHT22;10097;50.862;4.696;2023-04-03T16:05:36;15.30;92.70
19870;DHT22;10097;50.862;4.696;2023-04-03T16:08:02;15.30;91.30
19870;DHT22;10097;50.862;4.696;2023-04-03T16:10:28;15.40;91.90
19870;DHT22;10097;50.862;4.696;2023-04-03T16:12:53;15.50;92.50
19870;DHT22;10097;50.862;4.696;2023-04-03T16:15:20;15.10;91.80
19870;DHT22;10097;50.862;4.696;2023-04-03T16:17:47;15.20;91.50
19870;DHT22;10097;50.862;4.696;2023-04-03T16:20:14;15.20;92.10
19870;DHT22;10097;50.862;4.696;2023-04-03T16:22:41;15.50;91.90
19870;DHT22;10097;50.862;4.696;2023-04-03T16:25:08;15.50;91.90
19870;DHT22;10097;50.862;4.696;2023-04-03T16:27:35;15.10;91.80
19870;DHT22;10097;50.862;4.696;2023-04-03T16:30:01;15.10;92.40
19870;DHT22;10097;50.862;4.696;2023-04-03T16:32:29;15.00;92.40
19870;DHT22;10097;50.862;4.696;2023-04-03T16:34:58;14.90;92.80
19870;DHT22;10097;50.862;4.696;2023-04-03T16:37:24;15.10;92.60
19870;DHT22;10097;50.862;4.696;2023-04-03T16:39:50;14.80;92.10
19870;DHT22;10097;50.862;4.696;2023-04-03T16:42:16;14.50;92.80
19870;DHT22;10097;50.862;4.696;2023-04-03T16:44:42;14.20;93.30
19870;DHT22;10097;50.862;4.696;2023-04-03T16:47:08;14.30;93.90
19870;DHT22;10097;50.862;4.696;2023-04-03T16:49:34;14.00;93.60
19870;DHT22;10097;50.862;4.696;2023-04-03T16:52:02;14.30;93.70
19870;DHT22;10097;50.862;4.696;2023-04-03T16:54:28;14.60;94.10
19870;DHT22;10097;50.862;4.696;2023-04-03T16:56:54;14.60;93.50
19870;DHT22;10097;50.862;4.696;2023-04-03T16:59:20;14.80;93.30
19870;DHT22;10097;50.862;4.696;2023-04-03T17:01:46;14.70;92.90
19870;DHT22;10097;50.862;4.696;2023-04-03T17:04:12;14.70;92.80
19870;DHT22;10097;50.862;4.696;2023-04-03T17:06:39;14.20;92.60
19870;DHT22;10097;50.862;4.696;2023-04-03T17:09:05;13.90;93.00
19870;DHT22;10097;50.862;4.696;2023-04-03T17:11:32;13.80;93.30
19870;DHT22;10097;50.862;4.696;2023-04-03T17:13:58;13.80;93.30
19870;DHT22;10097;50.862;4.696;2023-04-03T17:16:24;14.10;93.50
19870;DHT22;10097;50.862;4.696;2023-04-03T17:18:52;14.10;93.90
19870;DHT22;10097;50.862;4.696;2023-04-03T17:21:18;14.40;94.30
19870;DHT22;10097;50.862;4.696;2023-04-03T17:23:47;13.90;93.60
19870;DHT22;10097;50.862;4.696;2023-04-03T17:26:14;13.80;93.80
19870;DHT22;10097;50.862;4.696;2023-04-03T17:28:40;13.60;94.20
19870;DHT22;10097;50.862;4.696;2023-04-03T17:31:06;13.60;94.90
19870;DHT22;10097;50.862;4.696;2023-04-03T17:33:32;13.70;95.00
19870;DHT22;10097;50.862;4.696;2023-04-03T17:36:01;13.70;94.90
19870;DHT22;10097;50.862;4.696;2023-04-03T17:38:29;13.40;95.10